sensor_id;sensor_type;location;lat;lon;timestamp;temperature;humidity
70051;SHT30;57391;51.306;22.680;2023-09-19T00:00:59;19.19;73.10
70051;SHT30;57391;51.306;22.680;2023-09-19T00:03:39;19.19;73.10
70051;SHT30;57391;51.306;22.680;2023-09-19T00:06:06;19.18;73.18
70051;SHT30;57391;51.306;22.680;2023-09-19T00:08:36;19.17;73.08
70051;SHT30;57391;51.306;22.680;2023-09-19T00:11:03;19.16;73.04
70051;SHT30;57391;51.306;22.680;2023-09-19T00:13:32;19.15;73.10
70051;SHT30;57391;51.306;22.680;2023-09-19T00:16:00;19.15;73.08
70051;SHT30;57391;51.306;22.680;2023-09-19T00:18:27;19.14;73.06
70051;SHT30;57391;51.306;22.680;2023-09-19T00:20:58;19.14;73.00
70051;SHT30;57391;51.306;22.680;2023-09-19T00:23:25;19.13;73.00
70051;SHT30;57391;51.306;22.680;2023-09-19T00:25:53;19.11;73.02
70051;SHT30;57391;51.306;22.680;2023-09-19T00:28:24;19.11;73.00
70051;SHT30;57391;51.306;22.680;2023-09-19T00:30:53;19.11;73.00
70051;SHT30;57391;51.306;22.680;2023-09-19T00:33:23;19.11;73.00
70051;SHT30;57391;51.306;22.680;2023-09-19T00:35:51;19.10;73.07
70051;SHT30;57391;51.306;22.680;2023-09-19T00:38:20;19.09;73.06
70051;SHT30;57391;51.306;22.680;2023-09-19T00:40:49;19.08;73.02
70051;SHT30;57391;51.306;22.680;2023-09-19T00:43:17;19.06;73.04
70051;SHT30;57391;51.306;22.680;2023-09-19T00:45:45;19.03;73.13
70051;SHT30;57391;51.306;22.680;2023-09-19T00:48:19;19.03;73.13
70051;SHT30;57391;51.306;22.680;2023-09-19T00:50:47;19.00;73.20
70051;SHT30;57391;51.306;22.680;2023-09-19T00:53:17;18.98;73.23
70051;SHT30;57391;51.306;22.680;2023-09-19T00:55:49;18.95;73.30
70051;SHT30;57391;51.306;22.680;2023-09-19T00:58:17;18.95;73.28
70051;SHT30;57391;51.306;22.680;2023-09-19T01:00:46;18.92;73.35
70051;SHT30;57391;51.306;22.680;2023-09-19T01:03:15;18.89;73.47
70051;SHT30;57391;51.306;22.680;2023-09-19T01:05:44;18.85;73.55
70051;SHT30;57391;51.306;22.680;2023-09-19T01:08:11;18.83;73.65
70051;SHT30;57391;51.306;22.680;2023-09-19T01:10:59;18.82;73.70
70051;SHT30;57391;51.306;22.680;2023-09-19T01:17:00;18.74;73.88
70051;SHT30;57391;51.306;22.680;2023-09-19T01:29:26;18.66;74.12
70051;SHT30;57391;51.306;22.680;2023-09-19T01:32:16;18.64;74.20
70051;SHT30;57391;51.306;22.680;2023-09-19T01:34:49;18.62;74.23
70051;SHT30;57391;51.306;22.680;2023-09-19T01:37:30;18.60;74.22
70051;SHT30;57391;51.306;22.680;2023-09-19T01:39:58;18.58;74.31
70051;SHT30;57391;51.306;22.680;2023-09-19T01:42:58;18.57;74.32
70051;SHT30;57391;51.306;22.680;2023-09-19T01:45:51;18.55;74.38
70051;SHT30;57391;51.306;22.680;2023-09-19T01:48:57;18.53;74.44
70051;SHT30;57391;51.306;22.680;2023-09-19T01:52:10;18.50;74.50
70051;SHT30;57391;51.306;22.680;2023-09-19T01:54:50;18.47;74.52
70051;SHT30;57391;51.306;22.680;2023-09-19T01:57:28;18.45;74.56
70051;SHT30;57391;51.306;22.680;2023-09-19T02:00:02;18.43;74.59
70051;SHT30;57391;51.306;22.680;2023-09-19T02:02:45;18.42;74.58
70051;SHT30;57391;51.306;22.680;2023-09-19T02:05:21;18.39;74.57
70051;SHT30;57391;51.306;22.680;2023-09-19T02:07:54;18.39;74.54
70051;SHT30;57391;51.306;22.680;2023-09-19T02:10:22;18.36;74.54
70051;SHT30;57391;51.306;22.680;2023-09-19T02:12:50;18.35;74.53
70051;SHT30;57391;51.306;22.680;2023-09-19T02:15:17;18.33;74.53
70051;SHT30;57391;51.306;22.680;2023-09-19T02:17:45;18.32;74.58
70051;SHT30;57391;51.306;22.680;2023-09-19T02:20:12;18.32;74.60
70051;SHT30;57391;51.306;22.680;2023-09-19T02:22:41;18.30;74.61
70051;SHT30;57391;51.306;22.680;2023-09-19T02:25:08;18.29;74.65
70051;SHT30;57391;51.306;22.680;2023-09-19T02:27:36;18.27;74.70
70051;SHT30;57391;51.306;22.680;2023-09-19T02:30:04;18.26;74.74
70051;SHT30;57391;51.306;22.680;2023-09-19T02:32:32;18.25;74.78
70051;SHT30;57391;51.306;22.680;2023-09-19T02:35:02;18.22;74.79
70051;SHT30;57391;51.306;22.680;2023-09-19T02:37:31;18.21;74.82
70051;SHT30;57391;51.306;22.680;2023-09-19T02:39:59;18.20;74.80
70051;SHT30;57391;51.306;22.680;2023-09-19T02:42:26;18.19;74.80
70051;SHT30;57391;51.306;22.680;2023-09-19T02:44:53;18.18;74.83
70051;SHT30;57391;51.306;22.680;2023-09-19T02:47:20;18.18;74.89
70051;SHT30;57391;51.306;22.680;2023-09-19T02:49:47;18.17;74.93
70051;SHT30;57391;51.306;22.680;2023-09-19T02:52:14;18.17;74.96
70051;SHT30;57391;51.306;22.680;2023-09-19T02:54:41;18.17;74.95
70051;SHT30;57391;51.306;22.680;2023-09-19T02:57:11;18.16;74.95
70051;SHT30;57391;51.306;22.680;2023-09-19T02:59:40;18.17;74.93
70051;SHT30;57391;51.306;22.680;2023-09-19T03:02:08;18.17;74.91
70051;SHT30;57391;51.306;22.680;2023-09-19T03:04:35;18.17;74.90
70051;SHT30;57391;51.306;22.680;2023-09-19T03:07:03;18.17;74.89
70051;SHT30;57391;51.306;22.680;2023-09-19T03:09:30;18.18;74.81
70051;SHT30;57391;51.306;22.680;2023-09-19T03:11:57;18.18;74.80
70051;SHT30;57391;51.306;22.680;2023-09-19T03:14:26;18.19;74.80
70051;SHT30;57391;51.306;22.680;2023-09-19T03:16:57;18.20;74.79
70051;SHT30;57391;51.306;22.680;2023-09-19T03:19:24;18.20;74.79
70051;SHT30;57391;51.306;22.680;2023-09-19T03:21:53;18.22;74.80
70051;SHT30;57391;51.306;22.680;2023-09-19T03:24:20;18.23;74.77
70051;SHT30;57391;51.306;22.680;2023-09-19T03:26:47;18.24;74.80
70051;SHT30;57391;51.306;22.680;2023-09-19T03:29:14;18.27;74.75
70051;SHT30;57391;51.306;22.680;2023-09-19T03:31:44;18.29;74.70
70051;SHT30;57391;51.306;22.680;2023-09-19T03:34:12;18.31;74.64
70051;SHT30;57391;51.306;22.680;2023-09-19T03:36:40;18.32;74.60
70051;SHT30;57391;51.306;22.680;2023-09-19T03:39:07;18.34;74.55
70051;SHT30;57391;51.306;22.680;2023-09-19T03:41:34;18.35;74.50
70051;SHT30;57391;51.306;22.680;2023-09-19T03:44:03;18.38;74.49
70051;SHT30;57391;51.306;22.680;2023-09-19T03:46:31;18.40;74.41
70051;SHT30;57391;51.306;22.680;2023-09-19T03:48:59;18.44;74.30
70051;SHT30;57391;51.306;22.680;2023-09-19T03:51:26;18.47;74.18
70051;SHT30;57391;51.306;22.680;2023-09-19T03:53:53;18.50;74.07
70051;SHT30;57391;51.306;22.680;2023-09-19T03:56:20;18.54;74.00
70051;SHT30;57391;51.306;22.680;2023-09-19T03:58:47;18.58;73.86
70051;SHT30;57391;51.306;22.680;2023-09-19T04:01:15;18.63;73.75
70051;SHT30;57391;51.306;22.680;2023-09-19T04:03:43;18.66;73.62
70051;SHT30;57391;51.306;22.680;2023-09-19T04:06:14;18.71;73.52
70051;SHT30;57391;51.306;22.680;2023-09-19T04:08:42;18.75;73.46
70051;SHT30;57391;51.306;22.680;2023-09-19T04:11:10;18.79;73.31
70051;SHT30;57391;51.306;22.680;2023-09-19T04:13:37;18.82;73.21
70051;SHT30;57391;51.306;22.680;2023-09-19T04:16:04;18.83;73.16
70051;SHT30;57391;51.306;22.680;2023-09-19T04:18:32;18.84;73.11
70051;SHT30;57391;51.306;22.680;2023-09-19T04:21:04;18.83;73.07
70051;SHT30;57391;51.306;22.680;2023-09-19T04:23:32;18.82;73.02
70051;SHT30;57391;51.306;22.680;2023-09-19T04:25:59;18.81;73.00
70051;SHT30;57391;51.306;22.680;2023-09-19T04:28:26;18.81;72.98
70051;SHT30;57391;51.306;22.680;2023-09-19T04:30:56;18.81;72.97
70051;SHT30;57391;51.306;22.680;2023-09-19T04:33:24;18.82;72.92
70051;SHT30;57391;51.306;22.680;2023-09-19T04:35:53;18.82;72.91
70051;SHT30;57391;51.306;22.680;2023-09-19T04:38:20;18.82;72.91
70051;SHT30;57391;51.306;22.680;2023-09-19T04:40:47;18.82;72.92
70051;SHT30;57391;51.306;22.680;2023-09-19T04:43:14;18.84;72.95
70051;SHT30;57391;51.306;22.680;2023-09-19T04:45:41;18.84;72.90
70051;SHT30;57391;51.306;22.680;2023-09-19T04:48:08;18.83;72.91
70051;SHT30;57391;51.306;22.680;2023-09-19T04:50:36;18.85;72.90
70051;SHT30;57391;51.306;22.680;2023-09-19T04:53:05;18.86;72.89
70051;SHT30;57391;51.306;22.680;2023-09-19T04:55:33;18.86;72.86
70051;SHT30;57391;51.306;22.680;2023-09-19T04:58:00;18.87;72.88
70051;SHT30;57391;51.306;22.680;2023-09-19T05:00:27;18.85;72.92
70051;SHT30;57391;51.306;22.680;2023-09-19T05:02:57;18.86;72.92
70051;SHT30;57391;51.306;22.680;2023-09-19T05:05:24;18.88;72.91
70051;SHT30;57391;51.306;22.680;2023-09-19T05:07:52;18.91;72.82
70051;SHT30;57391;51.306;22.680;2023-09-19T05:10:22;18.95;72.75
70051;SHT30;57391;51.306;22.680;2023-09-19T05:12:49;19.04;72.60
70051;SHT30;57391;51.306;22.680;2023-09-19T05:15:20;19.17;72.35
70051;SHT30;57391;51.306;22.680;2023-09-19T05:17:51;19.37;72.11
70051;SHT30;57391;51.306;22.680;2023-09-19T05:20:21;19.71;71.51
70051;SHT30;57391;51.306;22.680;2023-09-19T05:23:04;19.99;70.86
70051;SHT30;57391;51.306;22.680;2023-09-19T05:25:39;20.14;70.31
70051;SHT30;57391;51.306;22.680;2023-09-19T05:28:07;20.26;69.88
70051;SHT30;57391;51.306;22.680;2023-09-19T05:30:38;20.42;69.57
70051;SHT30;57391;51.306;22.680;2023-09-19T05:33:05;20.55;69.17
70051;SHT30;57391;51.306;22.680;2023-09-19T05:35:32;20.65;68.91
70051;SHT30;57391;51.306;22.680;2023-09-19T05:38:00;20.75;68.53
70051;SHT30;57391;51.306;22.680;2023-09-19T05:40:27;20.83;68.28
70051;SHT30;57391;51.306;22.680;2023-09-19T05:42:54;20.92;67.87
70051;SHT30;57391;51.306;22.680;2023-09-19T05:45:20;20.96;67.93
70051;SHT30;57391;51.306;22.680;2023-09-19T05:47:51;21.04;67.61
70051;SHT30;57391;51.306;22.680;2023-09-19T05:50:22;21.12;67.40
70051;SHT30;57391;51.306;22.680;2023-09-19T05:52:51;21.21;67.00
70051;SHT30;57391;51.306;22.680;2023-09-19T05:55:19;21.32;66.88
70051;SHT30;57391;51.306;22.680;2023-09-19T05:57:53;21.42;66.40
70051;SHT30;57391;51.306;22.680;2023-09-19T06:00:21;21.53;66.18
70051;SHT30;57391;51.306;22.680;2023-09-19T06:02:53;21.64;65.99
70051;SHT30;57391;51.306;22.680;2023-09-19T06:05:22;21.74;65.21
70051;SHT30;57391;51.306;22.680;2023-09-19T06:07:54;21.83;65.36
70051;SHT30;57391;51.306;22.680;2023-09-19T06:10:21;21.92;64.92
70051;SHT30;57391;51.306;22.680;2023-09-19T06:12:49;21.99;64.72
70051;SHT30;57391;51.306;22.680;2023-09-19T06:15:16;22.07;63.98
70051;SHT30;57391;51.306;22.680;2023-09-19T06:17:49;22.13;63.90
70051;SHT30;57391;51.306;22.680;2023-09-19T06:20:26;22.26;64.06
70051;SHT30;57391;51.306;22.680;2023-09-19T06:22:53;22.40;63.67
70051;SHT30;57391;51.306;22.680;2023-09-19T06:25:20;22.53;62.61
70051;SHT30;57391;51.306;22.680;2023-09-19T06:27:49;22.65;62.68
70051;SHT30;57391;51.306;22.680;2023-09-19T06:30:21;22.80;62.55
70051;SHT30;57391;51.306;22.680;2023-09-19T06:32:57;22.91;61.61
70051;SHT30;57391;51.306;22.680;2023-09-19T06:35:25;23.00;61.48
70051;SHT30;57391;51.306;22.680;2023-09-19T06:37:53;23.09;61.32
70051;SHT30;57391;51.306;22.680;2023-09-19T06:40:19;23.11;60.69
70051;SHT30;57391;51.306;22.680;2023-09-19T06:42:47;23.09;60.41
70051;SHT30;57391;51.306;22.680;2023-09-19T06:45:19;23.06;60.37
70051;SHT30;57391;51.306;22.680;2023-09-19T06:47:49;23.09;60.56
70051;SHT30;57391;51.306;22.680;2023-09-19T06:50:18;23.10;60.59
70051;SHT30;57391;51.306;22.680;2023-09-19T06:52:49;23.08;59.97
70051;SHT30;57391;51.306;22.680;2023-09-19T06:55:18;23.02;59.97
70051;SHT30;57391;51.306;22.680;2023-09-19T06:57:47;22.94;60.11
70051;SHT30;57391;51.306;22.680;2023-09-19T07:00:14;22.90;60.47
70051;SHT30;57391;51.306;22.680;2023-09-19T07:02:44;22.86;60.47
70051;SHT30;57391;51.306;22.680;2023-09-19T07:05:20;22.79;60.45
70051;SHT30;57391;51.306;22.680;2023-09-19T07:07:48;22.70;60.54
70051;SHT30;57391;51.306;22.680;2023-09-19T07:10:15;22.63;60.83
70051;SHT30;57391;51.306;22.680;2023-09-19T07:12:42;22.55;61.18
70051;SHT30;57391;51.306;22.680;2023-09-19T07:15:09;22.48;61.52
70051;SHT30;57391;51.306;22.680;2023-09-19T07:17:36;22.45;61.88
70051;SHT30;57391;51.306;22.680;2023-09-19T07:20:03;22.41;62.12
70051;SHT30;57391;51.306;22.680;2023-09-19T07:22:34;22.36;62.27
70051;SHT30;57391;51.306;22.680;2023-09-19T07:25:01;22.31;61.93
70051;SHT30;57391;51.306;22.680;2023-09-19T07:27:28;22.25;61.93
70051;SHT30;57391;51.306;22.680;2023-09-19T07:29:55;22.17;62.00
70051;SHT30;57391;51.306;22.680;2023-09-19T07:32:22;22.14;62.23
70051;SHT30;57391;51.306;22.680;2023-09-19T07:34:49;22.12;62.50
70051;SHT30;57391;51.306;22.680;2023-09-19T07:37:16;22.10;62.44
70051;SHT30;57391;51.306;22.680;2023-09-19T07:39:45;22.07;62.06
70051;SHT30;57391;51.306;22.680;2023-09-19T07:42:12;22.01;62.02
70051;SHT30;57391;51.306;22.680;2023-09-19T07:44:44;21.96;62.05
70051;SHT30;57391;51.306;22.680;2023-09-19T07:47:14;21.92;62.18
70051;SHT30;57391;51.306;22.680;2023-09-19T07:49:41;21.85;62.17
70051;SHT30;57391;51.306;22.680;2023-09-19T07:52:11;21.80;62.45
70051;SHT30;57391;51.306;22.680;2023-09-19T07:54:38;21.75;62.63
70051;SHT30;57391;51.306;22.680;2023-09-19T07:57:10;21.71;62.79
70051;SHT30;57391;51.306;22.680;2023-09-19T07:59:38;21.66;62.80
70051;SHT30;57391;51.306;22.680;2023-09-19T08:02:05;21.62;63.23
70051;SHT30;57391;51.306;22.680;2023-09-19T08:04:31;21.61;63.31
70051;SHT30;57391;51.306;22.680;2023-09-19T08:07:00;21.59;63.09
70051;SHT30;57391;51.306;22.680;2023-09-19T08:09:26;21.54;63.19
70051;SHT30;57391;51.306;22.680;2023-09-19T08:11:54;21.52;63.45
70051;SHT30;57391;51.306;22.680;2023-09-19T08:14:20;21.49;63.33
70051;SHT30;57391;51.306;22.680;2023-09-19T08:16:49;21.47;63.42
70051;SHT30;57391;51.306;22.680;2023-09-19T08:19:15;21.44;63.67
70051;SHT30;57391;51.306;22.680;2023-09-19T08:21:42;21.41;63.54
70051;SHT30;57391;51.306;22.680;2023-09-19T08:24:13;21.39;63.78
70051;SHT30;57391;51.306;22.680;2023-09-19T08:26:41;21.38;63.85
70051;SHT30;57391;51.306;22.680;2023-09-19T08:29:08;21.36;63.80
70051;SHT30;57391;51.306;22.680;2023-09-19T08:31:38;21.34;63.92
70051;SHT30;57391;51.306;22.680;2023-09-19T08:34:05;21.33;64.16
70051;SHT30;57391;51.306;22.680;2023-09-19T08:36:32;21.31;64.08
70051;SHT30;57391;51.306;22.680;2023-09-19T08:38:58;21.30;64.13
70051;SHT30;57391;51.306;22.680;2023-09-19T08:41:25;21.30;64.17
70051;SHT30;57391;51.306;22.680;2023-09-19T08:43:52;21.29;64.32
70051;SHT30;57391;51.306;22.680;2023-09-19T08:46:20;21.30;64.48
70051;SHT30;57391;51.306;22.680;2023-09-19T08:48:58;21.30;64.59
70051;SHT30;57391;51.306;22.680;2023-09-19T08:51:39;21.25;65.11
70051;SHT30;57391;51.306;22.680;2023-09-19T08:54:32;21.20;65.43
70051;SHT30;57391;51.306;22.680;2023-09-19T08:57:07;21.14;65.94
70051;SHT30;57391;51.306;22.680;2023-09-19T08:59:38;21.09;66.11
70051;SHT30;57391;51.306;22.680;2023-09-19T09:02:12;21.06;66.52
70051;SHT30;57391;51.306;22.680;2023-09-19T09:04:41;21.04;66.85
70051;SHT30;57391;51.306;22.680;2023-09-19T09:07:11;21.01;66.85
70051;SHT30;57391;51.306;22.680;2023-09-19T09:09:39;20.98;66.97
70051;SHT30;57391;51.306;22.680;2023-09-19T09:12:11;20.95;67.00
70051;SHT30;57391;51.306;22.680;2023-09-19T09:14:40;20.93;67.26
70051;SHT30;57391;51.306;22.680;2023-09-19T09:17:11;20.91;67.34
70051;SHT30;57391;51.306;22.680;2023-09-19T09:19:38;20.90;67.49
70051;SHT30;57391;51.306;22.680;2023-09-19T09:22:06;20.87;67.89
70051;SHT30;57391;51.306;22.680;2023-09-19T09:24:35;20.88;68.30
70051;SHT30;57391;51.306;22.680;2023-09-19T09:27:04;20.85;68.77
70051;SHT30;57391;51.306;22.680;2023-09-19T09:34:48;20.75;70.13
70051;SHT30;57391;51.306;22.680;2023-09-19T09:37:21;20.72;70.90
70051;SHT30;57391;51.306;22.680;2023-09-19T09:39:51;20.71;71.14
70051;SHT30;57391;51.306;22.680;2023-09-19T09:42:34;20.72;71.91
70051;SHT30;57391;51.306;22.680;2023-09-19T09:45:15;20.74;72.33
70051;SHT30;57391;51.306;22.680;2023-09-19T09:48:00;20.76;72.49
70051;SHT30;57391;51.306;22.680;2023-09-19T09:50:46;20.78;72.71
70051;SHT30;57391;51.306;22.680;2023-09-19T09:56:02;20.85;73.34
70051;SHT30;57391;51.306;22.680;2023-09-19T09:58:51;20.90;73.38
70051;SHT30;57391;51.306;22.680;2023-09-19T10:01:25;20.92;73.62
70051;SHT30;57391;51.306;22.680;2023-09-19T10:03:59;20.96;73.48
70051;SHT30;57391;51.306;22.680;2023-09-19T10:06:26;20.97;73.12
70051;SHT30;57391;51.306;22.680;2023-09-19T10:09:13;20.98;73.70
70051;SHT30;57391;51.306;22.680;2023-09-19T10:11:43;20.98;72.79
70051;SHT30;57391;51.306;22.680;2023-09-19T10:14:17;20.98;72.37
70051;SHT30;57391;51.306;22.680;2023-09-19T10:16:49;20.95;72.04
70051;SHT30;57391;51.306;22.680;2023-09-19T10:19:30;20.96;72.00
70051;SHT30;57391;51.306;22.680;2023-09-19T10:22:04;20.97;72.71
70051;SHT30;57391;51.306;22.680;2023-09-19T10:24:35;20.97;72.71
70051;SHT30;57391;51.306;22.680;2023-09-19T10:27:05;20.98;72.53
70051;SHT30;57391;51.306;22.680;2023-09-19T10:29:35;20.98;72.03
70051;SHT30;57391;51.306;22.680;2023-09-19T10:32:06;21.01;71.98
70051;SHT30;57391;51.306;22.680;2023-09-19T10:34:35;21.03;71.88
70051;SHT30;57391;51.306;22.680;2023-09-19T10:37:04;21.06;72.30
70051;SHT30;57391;51.306;22.680;2023-09-19T10:39:32;21.10;72.38
70051;SHT30;57391;51.306;22.680;2023-09-19T10:42:01;21.11;72.25
70051;SHT30;57391;51.306;22.680;2023-09-19T10:44:32;21.11;72.03
70051;SHT30;57391;51.306;22.680;2023-09-19T10:47:00;21.10;72.05
70051;SHT30;57391;51.306;22.680;2023-09-19T10:49:26;21.08;72.13
70051;SHT30;57391;51.306;22.680;2023-09-19T10:51:54;21.06;72.26
70051;SHT30;57391;51.306;22.680;2023-09-19T10:54:30;21.04;72.49
70051;SHT30;57391;51.306;22.680;2023-09-19T10:57:03;21.05;72.29
70051;SHT30;57391;51.306;22.680;2023-09-19T10:59:31;21.04;72.11
70051;SHT30;57391;51.306;22.680;2023-09-19T11:02:15;21.04;72.13
70051;SHT30;57391;51.306;22.680;2023-09-19T11:04:44;21.03;72.00
70051;SHT30;57391;51.306;22.680;2023-09-19T11:07:14;20.99;71.53
70051;SHT30;57391;51.306;22.680;2023-09-19T11:09:43;20.94;71.14
70051;SHT30;57391;51.306;22.680;2023-09-19T11:15:02;20.86;70.50
70051;SHT30;57391;51.306;22.680;2023-09-19T11:30:54;20.69;70.86
70051;SHT30;57391;51.306;22.680;2023-09-19T11:33:27;20.64;71.26
70051;SHT30;57391;51.306;22.680;2023-09-19T11:46:18;19.79;75.19
70051;SHT30;57391;51.306;22.680;2023-09-19T11:48:48;19.65;75.70
70051;SHT30;57391;51.306;22.680;2023-09-19T11:51:18;19.54;76.21
70051;SHT30;57391;51.306;22.680;2023-09-19T12:02:09;19.23;77.84
70051;SHT30;57391;51.306;22.680;2023-09-19T12:04:55;19.18;78.23
70051;SHT30;57391;51.306;22.680;2023-09-19T12:07:22;19.14;78.51
70051;SHT30;57391;51.306;22.680;2023-09-19T12:10:19;19.10;78.70
70051;SHT30;57391;51.306;22.680;2023-09-19T12:12:49;19.07;78.94
70051;SHT30;57391;51.306;22.680;2023-09-19T12:15:22;19.05;79.16
70051;SHT30;57391;51.306;22.680;2023-09-19T12:17:54;19.05;79.36
70051;SHT30;57391;51.306;22.680;2023-09-19T12:20:21;19.04;79.53
70051;SHT30;57391;51.306;22.680;2023-09-19T12:22:49;19.04;79.75
70051;SHT30;57391;51.306;22.680;2023-09-19T12:25:16;19.01;79.82
70051;SHT30;57391;51.306;22.680;2023-09-19T12:27:45;19.01;79.92
70051;SHT30;57391;51.306;22.680;2023-09-19T12:30:14;19.00;80.01
70051;SHT30;57391;51.306;22.680;2023-09-19T12:32:45;18.97;80.05
70051;SHT30;57391;51.306;22.680;2023-09-19T12:35:26;18.97;80.18
70051;SHT30;57391;51.306;22.680;2023-09-19T12:38:04;18.97;80.28
70051;SHT30;57391;51.306;22.680;2023-09-19T12:40:32;18.97;80.41
70051;SHT30;57391;51.306;22.680;2023-09-19T12:43:02;18.97;80.45
70051;SHT30;57391;51.306;22.680;2023-09-19T12:45:30;18.98;80.56
70051;SHT30;57391;51.306;22.680;2023-09-19T12:53:39;18.97;80.57
70051;SHT30;57391;51.306;22.680;2023-09-19T12:56:10;18.97;80.64
70051;SHT30;57391;51.306;22.680;2023-09-19T12:58:53;18.98;80.72
70051;SHT30;57391;51.306;22.680;2023-09-19T13:01:29;18.98;80.73
70051;SHT30;57391;51.306;22.680;2023-09-19T13:06:46;18.98;80.69
70051;SHT30;57391;51.306;22.680;2023-09-19T13:09:15;18.98;80.67
70051;SHT30;57391;51.306;22.680;2023-09-19T13:11:44;18.98;80.80
70051;SHT30;57391;51.306;22.680;2023-09-19T13:14:29;18.99;80.87
70051;SHT30;57391;51.306;22.680;2023-09-19T13:17:10;19.00;80.95
70051;SHT30;57391;51.306;22.680;2023-09-19T13:19:44;19.02;81.11
70051;SHT30;57391;51.306;22.680;2023-09-19T13:25:10;19.09;81.07
70051;SHT30;57391;51.306;22.680;2023-09-19T13:27:45;19.13;81.01
70051;SHT30;57391;51.306;22.680;2023-09-19T13:30:18;19.16;80.98
70051;SHT30;57391;51.306;22.680;2023-09-19T13:32:46;19.20;80.93
70051;SHT30;57391;51.306;22.680;2023-09-19T13:35:14;19.25;81.05
70051;SHT30;57391;51.306;22.680;2023-09-19T13:37:42;19.28;80.97
70051;SHT30;57391;51.306;22.680;2023-09-19T13:40:13;19.31;80.89
70051;SHT30;57391;51.306;22.680;2023-09-19T13:42:43;19.32;80.78
70051;SHT30;57391;51.306;22.680;2023-09-19T13:45:10;19.33;80.76
70051;SHT30;57391;51.306;22.680;2023-09-19T13:47:39;19.34;80.65
70051;SHT30;57391;51.306;22.680;2023-09-19T13:50:06;19.35;80.59
70051;SHT30;57391;51.306;22.680;2023-09-19T13:52:34;19.36;80.59
70051;SHT30;57391;51.306;22.680;2023-09-19T13:55:01;19.37;80.64
70051;SHT30;57391;51.306;22.680;2023-09-19T13:57:28;19.40;80.55
70051;SHT30;57391;51.306;22.680;2023-09-19T13:59:56;19.44;80.54
70051;SHT30;57391;51.306;22.680;2023-09-19T14:02:23;19.47;80.50
70051;SHT30;57391;51.306;22.680;2023-09-19T14:04:54;19.47;80.35
70051;SHT30;57391;51.306;22.680;2023-09-19T14:07:21;19.49;80.30
70051;SHT30;57391;51.306;22.680;2023-09-19T14:09:48;19.50;80.26
70051;SHT30;57391;51.306;22.680;2023-09-19T14:12:15;19.50;80.17
70051;SHT30;57391;51.306;22.680;2023-09-19T14:14:42;19.50;80.19
70051;SHT30;57391;51.306;22.680;2023-09-19T14:17:09;19.49;80.18
70051;SHT30;57391;51.306;22.680;2023-09-19T14:19:36;19.49;80.29
70051;SHT30;57391;51.306;22.680;2023-09-19T14:22:03;19.49;80.24
70051;SHT30;57391;51.306;22.680;2023-09-19T14:24:34;19.49;80.30
70051;SHT30;57391;51.306;22.680;2023-09-19T14:27:01;19.49;80.30
70051;SHT30;57391;51.306;22.680;2023-09-19T14:29:30;19.49;80.30
70051;SHT30;57391;51.306;22.680;2023-09-19T14:31:57;19.49;80.34
70051;SHT30;57391;51.306;22.680;2023-09-19T14:34:24;19.50;80.60
70051;SHT30;57391;51.306;22.680;2023-09-19T14:36:51;19.50;80.77
70051;SHT30;57391;51.306;22.680;2023-09-19T14:39:18;19.49;80.82
70051;SHT30;57391;51.306;22.680;2023-09-19T14:41:46;19.50;80.70
70051;SHT30;57391;51.306;22.680;2023-09-19T14:44:12;19.50;80.82
70051;SHT30;57391;51.306;22.680;2023-09-19T14:46:42;19.50;80.74
70051;SHT30;57391;51.306;22.680;2023-09-19T14:49:12;19.51;80.82
70051;SHT30;57391;51.306;22.680;2023-09-19T14:51:39;19.50;80.83
70051;SHT30;57391;51.306;22.680;2023-09-19T14:54:06;19.49;80.83
70051;SHT30;57391;51.306;22.680;2023-09-19T14:56:34;19.48;80.91
70051;SHT30;57391;51.306;22.680;2023-09-19T14:59:01;19.45;80.96
70051;SHT30;57391;51.306;22.680;2023-09-19T15:01:29;19.45;81.13
70051;SHT30;57391;51.306;22.680;2023-09-19T15:03:56;19.42;81.23
70051;SHT30;57391;51.306;22.680;2023-09-19T15:06:23;19.41;81.31
70051;SHT30;57391;51.306;22.680;2023-09-19T15:08:52;19.38;81.40
70051;SHT30;57391;51.306;22.680;2023-09-19T15:11:19;19.35;81.43
70051;SHT30;57391;51.306;22.680;2023-09-19T15:13:47;19.33;81.60
70051;SHT30;57391;51.306;22.680;2023-09-19T15:16:17;19.33;81.78
70051;SHT30;57391;51.306;22.680;2023-09-19T15:18:46;19.34;81.84
70051;SHT30;57391;51.306;22.680;2023-09-19T15:21:16;19.34;81.94
70051;SHT30;57391;51.306;22.680;2023-09-19T15:23:43;19.34;81.96
70051;SHT30;57391;51.306;22.680;2023-09-19T15:26:11;19.31;82.06
70051;SHT30;57391;51.306;22.680;2023-09-19T15:28:40;19.28;82.17
70051;SHT30;57391;51.306;22.680;2023-09-19T15:31:08;19.27;82.34
70051;SHT30;57391;51.306;22.680;2023-09-19T15:33:37;19.25;82.39
70051;SHT30;57391;51.306;22.680;2023-09-19T15:36:05;19.26;82.41
70051;SHT30;57391;51.306;22.680;2023-09-19T15:41:37;19.22;82.53
70051;SHT30;57391;51.306;22.680;2023-09-19T15:44:11;19.20;82.60
70051;SHT30;57391;51.306;22.680;2023-09-19T15:46:40;19.17;82.63
70051;SHT30;57391;51.306;22.680;2023-09-19T15:49:08;19.15;82.80
70051;SHT30;57391;51.306;22.680;2023-09-19T15:51:35;19.12;82.87
70051;SHT30;57391;51.306;22.680;2023-09-19T15:54:13;19.12;82.91
70051;SHT30;57391;51.306;22.680;2023-09-19T15:56:42;19.10;82.96
70051;SHT30;57391;51.306;22.680;2023-09-19T15:59:11;19.09;83.00
70051;SHT30;57391;51.306;22.680;2023-09-19T16:01:39;19.09;83.04
70051;SHT30;57391;51.306;22.680;2023-09-19T16:04:09;19.09;83.08
70051;SHT30;57391;51.306;22.680;2023-09-19T16:06:38;19.09;83.12
70051;SHT30;57391;51.306;22.680;2023-09-19T16:09:06;19.08;83.22
70051;SHT30;57391;51.306;22.680;2023-09-19T16:11:33;19.07;83.26
70051;SHT30;57391;51.306;22.680;2023-09-19T16:14:02;19.04;83.36
70051;SHT30;57391;51.306;22.680;2023-09-19T16:16:31;19.03;83.38
70051;SHT30;57391;51.306;22.680;2023-09-19T16:19:00;18.98;83.36
70051;SHT30;57391;51.306;22.680;2023-09-19T16:21:31;18.94;83.23
70051;SHT30;57391;51.306;22.680;2023-09-19T16:24:01;18.91;83.20
70051;SHT30;57391;51.306;22.680;2023-09-19T16:26:29;18.85;83.26
70051;SHT30;57391;51.306;22.680;2023-09-19T16:28:57;18.80;83.38
70051;SHT30;57391;51.306;22.680;2023-09-19T16:31:28;18.76;83.56
70051;SHT30;57391;51.306;22.680;2023-09-19T16:33:57;18.72;83.68
70051;SHT30;57391;51.306;22.680;2023-09-19T16:36:25;18.70;83.78
70051;SHT30;57391;51.306;22.680;2023-09-19T16:38:53;18.69;83.85
70051;SHT30;57391;51.306;22.680;2023-09-19T16:41:20;18.67;83.97
70051;SHT30;57391;51.306;22.680;2023-09-19T16:43:47;18.65;84.09